Date,TemperatureHighF,TemperatureAvgF,TemperatureLowF,DewpointHighF,DewpointAvgF,DewpointLowF,HumidityHigh,HumidityAvg,HumidityLow,PressureMaxIn,PressureMinIn,WindSpeedMaxMPH,WindSpeedAvgMPH,GustSpeedMaxMPH,PrecipitationSumIn
2013-8-1,90.9,77.4,64.0,61.6,58.1,53.3,82,55,29,30.06,29.97,13,4,13,0.00
2013-8-2,95.4,78.1,60.1,64.3,59.6,54.8,88,58,29,30.06,29.94,12,3,12,0.00
2013-8-3,99.5,80.8,61.3,66.0,59.5,50.6,85,54,20,29.99,29.91,10,3,10,0.00
2013-8-4,96.6,81.8,67.1,66.4,60.7,56.0,82,52,29,30.11,29.96,12,4,17,0.00
2013-8-5,95.7,82.8,69.3,67.4,62.1,57.4,83,53,30,30.11,29.96,26,5,26,0.00
2013-8-6,100.4,82.2,63.7,66.4,61.3,52.9,85,54,21,30.03,29.89,10,4,10,0.00
2013-8-7,100.6,83.6,66.4,65.4,60.5,51.5,82,51,21,29.95,29.87,15,4,15,0.00
2013-8-8,104.0,84.8,66.6,67.7,61.0,47.8,82,51,19,29.97,29.87,15,4,15,0.00
2013-8-9,102.0,84.6,67.5,67.7,60.9,53.5,81,50,22,29.93,29.75,20,4,20,0.00
2013-8-10,78.5,72.7,68.4,67.8,62.1,57.0,84,70,58,29.94,29.82,22,9,22,0.07
2013-8-11,87.4,73.9,61.9,58.5,51.7,40.8,81,51,20,29.98,29.91,15,5,15,0.07
2013-8-12,88.9,73.6,57.4,61.7,54.0,49.4,82,55,28,30.03,29.91,15,4,15,0.00
2013-8-13,88.5,72.8,59.4,62.3,56.9,51.8,90,60,32,30.01,29.90,22,7,22,0.13
2013-8-14,75.7,68.1,63.1,63.9,57.3,46.6,95,71,40,30.12,29.98,15,4,15,0.02
2013-8-15,81.3,66.3,51.1,57.6,51.0,43.5,98,64,27,30.19,30.11,12,4,12,0.02
2013-8-16,99.0,67.3,49.5,58.1,48.2,39.7,91,57,23,30.18,29.88,8,3,8,0.22
2013-8-17,88.3,69.2,50.0,55.1,48.2,40.4,85,54,19,30.08,29.97,9,3,9,0.22
2013-8-18,93.0,72.6,52.2,56.3,49.6,40.9,82,51,18,30.05,29.94,10,3,10,0.00
2013-8-19,95.9,75.8,56.1,59.3,51.3,36.7,82,49,13,30.00,29.86,15,4,15,0.00
2013-8-20,81.5,72.7,65.8,64.1,61.1,52.8,83,68,51,30.09,29.90,15,5,15,0.00
2013-8-21,79.5,70.8,63.5,62.8,60.4,56.5,86,71,54,30.14,30.07,15,4,15,0.00
2013-8-22,81.5,69.1,57.0,59.8,56.8,52.7,93,67,39,30.10,29.99,10,3,10,0.00
2013-8-23,84.0,69.6,53.6,60.6,53.3,48.9,85,59,35,30.06,29.93,9,4,9,0.00
2013-8-24,80.1,69.0,56.3,55.8,53.6,51.4,85,60,39,29.99,29.86,13,4,13,0.00
2013-8-25,83.1,70.7,63.1,62.5,54.9,50.1,89,60,34,29.89,29.78,16,6,16,0.04
2013-8-26,70.7,65.8,61.9,65.8,62.3,60.3,98,89,73,29.91,29.82,11,4,11,0.24
2013-8-27,76.5,66.7,60.6,61.7,60.1,57.9,98,81,54,29.93,29.85,9,4,9,0.01
2013-8-28,73.2,64.5,59.5,64.4,60.3,57.5,99,87,65,29.90,29.82,13,6,13,0.46
2013-8-29,78.6,66.3,58.5,63.6,58.7,52.8,99,79,43,30.08,29.89,15,5,15,0.02
2013-8-30,76.1,65.0,56.8,60.0,57.0,50.9,97,78,42,30.07,30.03,11,3,11,0.02
2013-8-31,80.4,65.0,51.1,59.5,53.4,47.4,99,71,32,30.08,30.00,12,4,12,0.00